SCRM

Details ICAO SCRM
Name TENIENTE RODOLFO MARSH MARTIN
Region Chile
Timezone uninhabited (UTC+0.0)
Plans Departing 41
Arriving 45
Stats Elevation 147 ft / 45 m (AMSL)
Location -62.190905° -58.987224°
Runways 1
Magnetic Variation 10.825° E
Sunrise 2017-12-16 05:59:30 UTC / 2017-12-16 05:59:30 Local
Sunset 2017-12-17 01:46:35 UTC / 2017-12-17 01:46:35 Local
Advertisement - Login to hide

Runways

ID Width Length Bearing (true) Bearing (mag) Surface Threshold Offset Overrun Length
11 210 ft / 64 m 4,227 ft / 1,288 m 116.91° 106.08° Dirt 0 ft / 0 m 0 ft / 0 m
29 210 ft / 64 m 4,227 ft / 1,288 m 296.89° 286.06° Dirt 0 ft / 0 m 0 ft / 0 m

Map

Weather


0- 5 10 15 20 25 30 35+ Temperature / ° C

Clouds and Precipitation
Forecast for 2017-12-16 18:00 UTC. Updated 7 minutes ago

Ground ~20,000 ft ~40,000 ft Winds

METAR

SCRM 161700Z 26009KT 9999 FEW040 SCT060 M01/M02 Q0976

TAF

Not found

Frequencies

Tower 118.10 MHz TWR
Approach 119.70 MHz MARSH APP
Approach 118.10 MHz MARSH APP
Warning: Do not use this data for real-world aviation or navigation. No guarantee of current accuracy is given.